Time;durP1;ratioP1;P1;durP2;ratioP2;P2;SDS_P1;SDS_P2;PMS_P1;PMS_P2;Temp;Humidity;BMP_temperature;BMP_pressure;BME280_temperature;BME280_humidity;BME280_pressure;Samples;Min_cycle;Max_cycle;Signal;HPM_P1;HPM_P2
2021/05/25 00:02:18;;;;;;;2.25;1.48;;;;;;;8.12;92.51;95502.00;5094073;28;20072;-73
2021/05/25 00:04:43;;;;;;;2.20;1.48;;;;;;;7.89;91.47;95491.91;5091909;28;20042;-73
2021/05/25 00:07:09;;;;;;;1.45;1.35;;;;;;;7.78;93.36;95497.03;5091511;28;20040;-73
2021/05/25 00:09:35;;;;;;;2.45;1.50;;;;;;;7.71;93.85;95508.78;5091545;28;20036;-73
2021/05/25 00:12:01;;;;;;;6.85;1.50;;;;;;;7.60;92.31;95506.09;5106805;28;20589;-74
2021/05/25 00:14:28;;;;;;;1.70;1.30;;;;;;;7.51;91.21;95509.41;5098433;28;20071;-74
2021/05/25 00:16:54;;;;;;;2.75;1.33;;;;;;;7.40;92.76;95517.19;5101839;28;20098;-74
2021/05/25 00:19:20;;;;;;;4.40;1.40;;;;;;;7.35;93.34;95519.75;5106041;28;20470;-74
2021/05/25 00:21:46;;;;;;;2.70;1.33;;;;;;;7.29;91.43;95520.75;5106739;28;20482;-74
2021/05/25 00:24:12;;;;;;;1.80;1.30;;;;;;;7.22;93.63;95520.16;5097931;28;20088;-73
2021/05/25 00:26:38;;;;;;;2.95;1.60;;;;;;;7.21;92.50;95523.81;5103075;28;20043;-74
2021/05/25 00:29:04;;;;;;;2.50;1.40;;;;;;;7.16;94.04;95515.91;5095113;28;20040;-74
2021/05/25 00:31:30;;;;;;;2.58;1.35;;;;;;;7.17;93.42;95517.47;5100719;28;20051;-74
2021/05/25 00:33:55;;;;;;;3.70;1.58;;;;;;;7.13;92.73;95519.81;5105740;28;20043;-73
2021/05/25 00:36:22;;;;;;;4.07;1.55;;;;;;;7.12;94.09;95515.59;5095083;28;20497;-73
2021/05/25 00:38:48;;;;;;;1.73;1.38;;;;;;;7.07;93.65;95511.13;5102966;28;20048;-74
2021/05/25 00:41:14;;;;;;;2.60;1.38;;;;;;;7.05;93.08;95515.81;5091960;28;20040;-73
2021/05/25 00:43:40;;;;;;;3.85;1.58;;;;;;;6.95;92.49;95520.94;5092346;28;20040;-73
2021/05/25 00:46:05;;;;;;;2.03;1.35;;;;;;;7.02;93.03;95518.91;5099889;28;20346;-73
2021/05/25 00:48:31;;;;;;;2.53;1.42;;;;;;;6.94;93.82;95514.13;5103604;28;20032;-74
2021/05/25 00:50:57;;;;;;;2.08;1.42;;;;;;;6.96;94.65;95526.97;5103886;28;20417;-73
2021/05/25 00:53:23;;;;;;;2.55;1.42;;;;;;;6.93;93.55;95520.41;5097109;28;20444;-74
2021/05/25 00:55:48;;;;;;;1.75;1.30;;;;;;;6.93;93.87;95529.03;5094690;28;20067;-74
2021/05/25 00:58:14;;;;;;;4.90;1.70;;;;;;;6.96;95.46;95517.28;5097421;28;20039;-73
2021/05/25 01:00:45;;;;;;;5.65;1.38;;;;;;;6.96;93.82;95517.28;5096450;28;20050;-73
2021/05/25 01:03:18;;;;;;;2.97;1.30;;;;;;;6.99;93.16;95514.16;5092396;28;20046;-73
2021/05/25 01:05:45;;;;;;;2.23;1.43;;;;;;;7.04;93.02;95511.63;5090105;28;20040;-74
2021/05/25 01:08:12;;;;;;;2.17;1.42;;;;;;;7.01;91.44;95509.50;5100843;28;20161;-74
2021/05/25 01:10:41;;;;;;;1.52;1.10;;;;;;;7.01;90.64;95519.97;5096531;28;20040;-73
2021/05/25 01:13:11;;;;;;;1.52;1.10;;;;;;;7.00;90.87;95502.69;5096105;28;20474;-74
2021/05/25 01:15:37;;;;;;;2.63;1.10;;;;;;;6.93;89.96;95496.84;5092095;28;20485;-74
2021/05/25 01:18:04;;;;;;;2.97;1.42;;;;;;;6.84;92.97;95498.31;5103477;28;20045;-75
2021/05/25 01:20:33;;;;;;;1.48;1.17;;;;;;;6.78;91.45;95500.09;5107176;28;20094;-74
2021/05/25 01:22:58;;;;;;;2.50;1.20;;;;;;;6.78;90.95;95507.13;5093940;28;20527;-73
2021/05/25 01:25:26;;;;;;;3.78;1.48;;;;;;;6.78;90.96;95515.00;5095995;28;20056;-74
2021/05/25 01:28:04;;;;;;;2.05;1.30;;;;;;;6.79;90.62;95495.66;5097958;28;20048;-74
2021/05/25 01:30:36;;;;;;;3.33;1.10;;;;;;;6.73;90.49;95492.97;5102433;28;20123;-74
2021/05/25 01:33:03;;;;;;;1.83;1.30;;;;;;;6.71;91.36;95495.06;5103686;28;20036;-74
2021/05/25 01:35:29;;;;;;;3.17;1.45;;;;;;;6.69;90.83;95502.34;5094651;28;20059;-74
2021/05/25 01:37:57;;;;;;;1.13;1.10;;;;;;;6.63;90.95;95503.31;5099675;28;20040;-74
2021/05/25 01:40:24;;;;;;;1.42;1.20;;;;;;;6.64;91.73;95494.44;5098562;28;20040;-74
2021/05/25 01:42:50;;;;;;;2.15;1.48;;;;;;;6.59;91.66;95512.69;5099117;28;20445;-74
2021/05/25 01:45:22;;;;;;;1.77;1.33;;;;;;;6.62;91.40;95506.97;5096458;28;20107;-74
2021/05/25 01:47:48;;;;;;;1.58;1.20;;;;;;;6.60;91.70;95514.28;5101657;28;20040;-74
2021/05/25 01:50:15;;;;;;;2.38;1.25;;;;;;;6.52;91.15;95517.31;5101963;28;20519;-74
2021/05/25 01:52:47;;;;;;;3.85;1.27;;;;;;;6.55;91.44;95525.47;5089861;28;20097;-73
2021/05/25 01:55:23;;;;;;;2.38;1.20;;;;;;;6.55;91.58;95527.28;5104409;28;20122;-74
2021/05/25 01:57:49;;;;;;;3.90;1.30;;;;;;;6.56;91.40;95518.41;5095254;28;20450;-73
2021/05/25 02:00:15;;;;;;;2.42;1.20;;;;;;;6.51;91.35;95526.97;5107778;28;20151;-73
2021/05/25 02:02:40;;;;;;;3.40;1.10;;;;;;;6.44;91.43;95525.56;5110088;28;20038;-74
2021/05/25 02:05:06;;;;;;;1.85;1.25;;;;;;;6.37;91.20;95537.00;5107420;28;20483;-74
2021/05/25 02:07:32;;;;;;;2.65;1.25;;;;;;;6.40;91.25;95531.28;5114052;28;20036;-73
2021/05/25 02:09:58;;;;;;;2.00;1.25;;;;;;;6.29;91.72;95529.56;5099646;28;20039;-74
2021/05/25 02:12:23;;;;;;;1.95;1.27;;;;;;;6.28;91.22;95530.59;5102448;28;20067;-73
2021/05/25 02:14:49;;;;;;;3.05;1.30;;;;;;;6.30;91.05;95540.81;5107367;28;20519;-73
2021/05/25 02:17:14;;;;;;;2.25;1.10;;;;;;;6.35;90.45;95544.28;5111573;28;20040;-74
2021/05/25 02:19:40;;;;;;;3.80;1.27;;;;;;;6.30;89.88;95540.81;5107274;28;20043;-74
2021/05/25 02:22:05;;;;;;;4.32;1.23;;;;;;;6.32;91.70;95547.41;5093531;28;20101;-73
2021/05/25 02:24:31;;;;;;;3.17;1.27;;;;;;;6.34;90.00;95545.31;5107837;28;20035;-74
2021/05/25 02:26:57;;;;;;;3.35;1.30;;;;;;;6.35;89.99;95544.28;5096992;28;20047;-73
2021/05/25 02:29:22;;;;;;;1.45;1.17;;;;;;;6.30;89.96;95541.59;5093335;28;20043;-74
2021/05/25 02:31:48;;;;;;;5.20;1.42;;;;;;;6.22;91.05;95534.16;5112314;28;20481;-73
2021/05/25 02:34:13;;;;;;;2.92;1.67;;;;;;;6.22;90.88;95547.22;5110530;28;20047;-73
2021/05/25 02:36:39;;;;;;;2.60;1.23;;;;;;;6.21;90.69;95543.06;5100772;28;20043;-73
2021/05/25 02:39:05;;;;;;;5.78;1.30;;;;;;;6.18;91.31;95544.31;5092383;28;20040;-74
2021/05/25 02:41:30;;;;;;;3.47;1.50;;;;;;;6.28;90.47;95548.91;5097503;28;20115;-74
2021/05/25 02:43:57;;;;;;;3.00;1.50;;;;;;;6.27;90.44;95552.53;5096437;28;20074;-73
2021/05/25 02:46:22;;;;;;;3.25;1.38;;;;;;;6.21;91.32;95556.91;5102254;28;20489;-74
2021/05/25 02:48:48;;;;;;;4.65;1.45;;;;;;;6.18;91.41;95554.00;5110914;28;20042;-73
2021/05/25 02:51:14;;;;;;;3.05;1.30;;;;;;;6.22;90.81;95555.06;5107641;28;20070;-74
2021/05/25 02:53:40;;;;;;;3.70;1.40;;;;;;;6.23;90.62;95559.28;5107642;28;20036;-73
2021/05/25 02:56:05;;;;;;;5.13;1.60;;;;;;;6.26;91.71;95555.41;5098480;28;20036;-73
2021/05/25 02:58:31;;;;;;;5.60;1.58;;;;;;;6.26;90.81;95548.34;5101134;28;20032;-74
2021/05/25 03:00:56;;;;;;;3.53;1.40;;;;;;;6.23;91.09;95565.31;5092209;28;20489;-73
2021/05/25 03:03:22;;;;;;;3.17;1.50;;;;;;;6.29;90.18;95563.53;5097390;28;20051;-74
2021/05/25 03:05:48;;;;;;;3.13;1.50;;;;;;;6.30;90.96;95557.28;5092932;28;20032;-74
2021/05/25 03:08:15;;;;;;;2.67;1.40;;;;;;;6.33;89.60;95567.25;5100941;28;20123;-74
2021/05/25 03:10:44;;;;;;;3.20;1.30;;;;;;;6.26;90.72;95566.63;5092119;28;20044;-73
2021/05/25 03:13:10;;;;;;;4.20;1.30;;;;;;;6.26;91.29;95571.06;5100380;28;20055;-73
2021/05/25 03:15:45;;;;;;;4.38;1.40;;;;;;;6.22;91.28;95581.19;5091847;28;20048;-73
2021/05/25 03:18:12;;;;;;;5.53;1.55;;;;;;;6.27;90.25;95583.91;5107131;28;20448;-73
2021/05/25 03:20:40;;;;;;;2.67;1.33;;;;;;;6.21;90.02;95595.31;5097853;28;20040;-74
2021/05/25 03:23:07;;;;;;;5.43;1.30;;;;;;;6.26;91.46;95600.59;5096195;28;20043;-73
2021/05/25 03:25:33;;;;;;;3.47;1.40;;;;;;;6.19;91.15;95597.38;5098138;28;20089;-75
2021/05/25 03:27:58;;;;;;;4.05;1.40;;;;;;;6.21;91.61;95595.31;5106531;28;20446;-73
2021/05/25 03:30:26;;;;;;;5.63;1.67;;;;;;;6.16;91.11;95587.38;5106651;28;20103;-73
2021/05/25 03:32:53;;;;;;;4.18;1.52;;;;;;;6.25;91.47;95593.81;5100560;28;20036;-73
2021/05/25 03:35:21;;;;;;;3.70;1.40;;;;;;;6.20;90.91;95583.28;5092779;28;20050;-73
2021/05/25 03:37:47;;;;;;;3.67;1.50;;;;;;;6.20;90.63;95591.13;5096663;28;20089;-73
2021/05/25 03:40:14;;;;;;;4.50;1.83;;;;;;;6.19;91.92;95586.91;5091753;28;20036;-73
2021/05/25 03:42:43;;;;;;;4.07;1.60;;;;;;;6.13;92.81;95593.88;5101102;28;20501;-73
2021/05/25 03:45:09;;;;;;;3.75;1.58;;;;;;;6.19;90.82;95600.78;5103610;28;20048;-73
2021/05/25 03:47:34;;;;;;;2.40;1.40;;;;;;;6.27;90.90;95593.56;5103085;28;20039;-73
2021/05/25 03:50:09;;;;;;;2.78;1.40;;;;;;;6.26;90.95;95587.53;5102512;28;20050;-73
2021/05/25 03:52:35;;;;;;;;;;;;;;;6.20;90.85;95578.06;5100786;28;20450;-73
2021/05/25 03:55:03;;;;;;;4.53;1.55;;;;;;;6.18;91.64;95564.44;5090867;28;20353;-73
2021/05/25 03:59:57;;;;;;;6.35;1.60;;;;;;;6.06;91.69;95575.78;5092897;28;20111;-74
2021/05/25 04:02:23;;;;;;;6.22;1.77;;;;;;;6.12;91.02;95573.22;5097333;28;20439;-73
2021/05/25 04:04:48;;;;;;;5.28;1.90;;;;;;;6.14;91.25;95579.00;5103925;27;20040;-74
2021/05/25 04:07:14;;;;;;;4.00;1.48;;;;;;;6.04;92.17;95583.03;5096666;28;20122;-73
2021/05/25 04:09:40;;;;;;;4.40;1.77;;;;;;;6.10;92.29;95593.59;5104875;28;20485;-73
2021/05/25 04:12:06;;;;;;;6.85;1.38;;;;;;;6.15;91.03;95596.25;5108442;28;20113;-73
2021/05/25 04:14:32;;;;;;;3.30;1.58;;;;;;;6.05;93.11;95595.09;5091187;28;20048;-73
2021/05/25 04:16:58;;;;;;;2.88;1.50;;;;;;;6.06;92.43;95607.13;5091788;28;20050;-73
2021/05/25 04:19:24;;;;;;;3.05;1.35;;;;;;;6.14;92.11;95599.91;5098440;28;20036;-73
2021/05/25 04:21:49;;;;;;;3.72;1.40;;;;;;;6.09;91.97;95607.66;5108153;28;20039;-73
2021/05/25 04:24:15;;;;;;;3.67;1.60;;;;;;;6.12;91.64;95610.59;5108525;28;20114;-73
2021/05/25 04:26:41;;;;;;;4.07;1.88;;;;;;;6.05;92.49;95613.38;5099481;28;20040;-74
2021/05/25 04:29:07;;;;;;;3.45;1.50;;;;;;;6.04;93.60;95617.00;5093847;28;20044;-73
2021/05/25 04:31:33;;;;;;;3.78;1.60;;;;;;;6.05;93.49;95618.59;5110235;28;20039;-73
2021/05/25 04:33:58;;;;;;;2.88;1.40;;;;;;;6.05;92.88;95620.44;5092754;28;20088;-73
2021/05/25 04:36:24;;;;;;;2.63;1.40;;;;;;;6.11;92.77;95616.06;5094486;28;20059;-73
2021/05/25 04:38:50;;;;;;;6.57;1.70;;;;;;;6.04;93.58;95617.00;5098890;28;20058;-73
2021/05/25 04:41:15;;;;;;;6.80;1.77;;;;;;;6.03;93.56;95615.44;5105957;28;20366;-74
2021/05/25 04:43:41;;;;;;;1.95;1.50;;;;;;;6.13;93.14;95629.69;5098149;28;20051;-73
2021/05/25 04:46:07;;;;;;;3.35;1.73;;;;;;;6.11;93.40;95632.53;5108284;28;20035;-73
2021/05/25 04:48:32;;;;;;;4.28;2.10;;;;;;;6.16;93.04;95629.19;5096878;28;20106;-73
2021/05/25 04:50:58;;;;;;;3.97;1.88;;;;;;;6.17;93.45;95628.19;5095448;28;20088;-74
2021/05/25 04:53:24;;;;;;;2.33;1.58;;;;;;;6.19;95.05;95626.09;5090575;28;20379;-73
2021/05/25 04:55:49;;;;;;;4.72;1.80;;;;;;;6.33;93.71;95629.97;5095243;28;20105;-73
2021/05/25 04:58:15;;;;;;;3.83;1.35;;;;;;;6.49;89.63;95635.44;5107776;28;20047;-73
2021/05/25 05:00:41;;;;;;;3.78;1.60;;;;;;;6.46;92.07;95635.91;5103247;28;20032;-73
2021/05/25 05:03:07;;;;;;;2.55;1.63;;;;;;;6.54;88.81;95630.28;5091442;28;20032;-73
2021/05/25 05:05:32;;;;;;;6.80;1.75;;;;;;;6.58;88.42;95636.63;5091339;28;20040;-73
2021/05/25 05:07:58;;;;;;;4.40;1.48;;;;;;;6.58;89.10;95636.63;5096342;28;20057;-75
2021/05/25 05:10:24;;;;;;;3.88;1.25;;;;;;;6.60;89.22;95637.16;5099265;28;20040;-73
2021/05/25 05:12:49;;;;;;;5.43;1.40;;;;;;;6.66;87.50;95643.25;5090881;28;20039;-72
2021/05/25 05:15:16;;;;;;;3.40;1.48;;;;;;;6.75;86.89;95641.81;5093449;28;21852;-73
2021/05/25 05:17:42;;;;;;;6.18;1.38;;;;;;;6.83;87.27;95632.78;5102904;28;20048;-72
2021/05/25 05:20:10;;;;;;;2.50;1.30;;;;;;;6.83;86.66;95646.63;5101411;28;20051;-73
2021/05/25 05:22:37;;;;;;;7.32;1.50;;;;;;;6.83;86.81;95638.00;5095610;28;20071;-73
2021/05/25 05:25:05;;;;;;;7.70;1.40;;;;;;;6.92;86.11;95647.00;5101619;28;20044;-73
2021/05/25 05:27:30;;;;;;;3.47;1.10;;;;;;;6.93;82.13;95638.13;5090078;28;20036;-73
2021/05/25 05:29:56;;;;;;;5.47;1.40;;;;;;;6.88;82.99;95645.91;5092458;28;20052;-73
2021/05/25 05:32:22;;;;;;;4.40;1.27;;;;;;;6.80;86.65;95654.19;5100774;28;20042;-73
2021/05/25 05:34:47;;;;;;;5.22;1.38;;;;;;;6.88;82.94;95661.59;5104167;28;20035;-73
2021/05/25 05:37:13;;;;;;;7.15;1.65;;;;;;;6.85;82.15;95656.84;5106697;28;20084;-73
2021/05/25 05:39:39;;;;;;;4.65;1.42;;;;;;;6.80;81.75;95651.56;5103666;28;20044;-73
2021/05/25 05:42:05;;;;;;;6.93;1.45;;;;;;;6.76;80.42;95649.41;5112481;28;20039;-72
2021/05/25 05:44:31;;;;;;;2.17;1.10;;;;;;;6.72;79.31;95643.09;5098564;28;20089;-72
2021/05/25 05:46:57;;;;;;;4.28;1.48;;;;;;;6.66;82.72;95649.28;5095565;28;20400;-72
2021/05/25 05:49:23;;;;;;;7.32;1.60;;;;;;;6.74;83.52;95641.03;5095148;28;20044;-73
2021/05/25 05:51:51;;;;;;;5.20;1.55;;;;;;;6.82;83.04;95659.94;5104984;28;20101;-73
2021/05/25 05:54:18;;;;;;;3.20;1.25;;;;;;;6.83;80.13;95664.16;5108768;28;20043;-73
2021/05/25 05:56:47;;;;;;;5.05;1.20;;;;;;;6.90;81.77;95664.78;5098042;28;20070;-73
2021/05/25 05:59:12;;;;;;;5.55;1.33;;;;;;;6.90;78.60;95672.63;5111970;28;20481;-73
2021/05/25 06:01:38;;;;;;;4.18;1.50;;;;;;;6.93;77.16;95669.53;5107596;28;20046;-73
2021/05/25 06:04:04;;;;;;;5.22;1.42;;;;;;;6.99;79.08;95684.25;5111003;28;20118;-73
2021/05/25 06:06:29;;;;;;;5.25;1.80;;;;;;;7.01;82.64;95676.97;5102696;28;20055;-74
2021/05/25 06:08:55;;;;;;;5.32;1.67;;;;;;;7.02;80.57;95678.53;5100567;28;20051;-73
2021/05/25 06:11:20;;;;;;;4.07;1.33;;;;;;;7.05;77.33;95683.28;5110044;28;20637;-73
2021/05/25 06:13:46;;;;;;;6.05;1.58;;;;;;;7.07;78.37;95690.91;5093245;28;20493;-73
2021/05/25 06:16:11;;;;;;;6.68;2.33;;;;;;;7.05;76.88;95683.28;5106357;28;20035;-75
2021/05/25 06:18:37;;;;;;;7.20;1.60;;;;;;;7.08;77.70;95682.81;5105034;28;20042;-74
2021/05/25 06:21:04;;;;;;;7.38;1.70;;;;;;;7.03;76.01;95685.34;5095850;28;20040;-74
2021/05/25 06:23:30;;;;;;;6.75;1.45;;;;;;;7.14;76.97;95695.94;5095366;28;20040;-73
2021/05/25 06:25:56;;;;;;;2.90;1.10;;;;;;;7.12;76.32;95698.81;5102997;28;20534;-73
2021/05/25 06:28:22;;;;;;;6.30;1.38;;;;;;;7.19;79.65;95709.09;5097742;28;20039;-74
2021/05/25 06:30:48;;;;;;;6.13;1.25;;;;;;;7.22;75.88;95708.63;5093201;28;20044;-75
2021/05/25 06:33:13;;;;;;;4.50;1.23;;;;;;;7.22;73.65;95703.38;5100721;28;20106;-72
2021/05/25 06:35:39;;;;;;;6.85;1.42;;;;;;;7.26;73.53;95704.47;5105302;28;20067;-72
2021/05/25 06:38:06;;;;;;;5.50;1.48;;;;;;;7.33;77.69;95710.31;5110726;28;20394;-72
2021/05/25 06:40:31;;;;;;;4.57;1.48;;;;;;;7.27;74.91;95711.31;5093196;28;20048;-71
2021/05/25 06:42:57;;;;;;;6.18;1.90;;;;;;;7.35;76.24;95697.78;5111358;28;20058;-73
2021/05/25 06:45:25;;;;;;;5.72;1.60;;;;;;;7.45;74.32;95703.13;5114027;28;20396;-71
2021/05/25 06:47:50;;;;;;;5.25;1.55;;;;;;;7.58;76.57;95695.94;5104847;28;20039;-70
2021/05/25 06:50:16;;;;;;;6.15;1.50;;;;;;;7.66;75.52;95703.38;5113582;28;20059;-70
2021/05/25 06:52:42;;;;;;;7.68;1.33;;;;;;;7.74;72.34;95700.31;5111604;28;20053;-71
2021/05/25 06:55:10;;;;;;;7.00;1.60;;;;;;;7.81;71.91;95700.13;5108927;28;20036;-76
2021/05/25 06:57:36;;;;;;;6.13;1.50;;;;;;;7.82;71.85;95690.44;5093770;28;20052;-70
2021/05/25 07:00:05;;;;;;;6.90;1.35;;;;;;;7.84;72.26;95693.59;5102378;28;20135;-72
2021/05/25 07:02:31;;;;;;;2.85;1.25;;;;;;;7.95;71.64;95695.28;5100770;28;20036;-72
2021/05/25 07:04:57;;;;;;;7.35;1.58;;;;;;;8.03;70.18;95707.94;5103421;28;20046;-68
2021/05/25 07:07:22;;;;;;;4.88;1.60;;;;;;;8.12;70.03;95711.69;5110125;28;20036;-71
2021/05/25 07:09:48;;;;;;;2.63;1.20;;;;;;;8.09;70.49;95717.44;5111884;28;20042;-70
2021/05/25 07:12:14;;;;;;;4.93;1.27;;;;;;;8.23;71.69;95724.88;5108773;28;20073;-70
2021/05/25 07:14:40;;;;;;;5.85;1.25;;;;;;;8.37;70.96;95728.69;5110345;28;20516;-70
2021/05/25 07:17:06;;;;;;;7.28;1.95;;;;;;;8.40;70.79;95717.69;5096774;28;20043;-69
2021/05/25 07:19:33;;;;;;;5.07;1.42;;;;;;;8.32;68.59;95705.84;5092726;28;20101;-70
2021/05/25 07:21:58;;;;;;;4.88;1.27;;;;;;;8.23;67.72;95722.25;5093007;28;20055;-70
2021/05/25 07:24:24;;;;;;;3.80;1.30;;;;;;;8.20;64.29;95728.78;5104552;28;20039;-70
2021/05/25 07:26:50;;;;;;;4.55;1.10;;;;;;;8.17;65.31;95718.03;5093191;28;20093;-70
2021/05/25 07:29:16;;;;;;;4.28;1.50;;;;;;;8.27;64.28;95720.72;5106437;28;20046;-70
2021/05/25 07:31:42;;;;;;;3.78;1.20;;;;;;;8.32;65.46;95726.03;5105730;28;20105;-72
2021/05/25 07:34:08;;;;;;;2.92;1.15;;;;;;;8.42;66.57;95715.63;5106674;28;20040;-71
2021/05/25 07:36:33;;;;;;;4.40;1.42;;;;;;;8.37;65.56;95712.94;5100380;28;20043;-70
2021/05/25 07:38:59;;;;;;;5.50;1.67;;;;;;;8.28;67.84;95711.84;5106413;28;20040;-70
2021/05/25 07:41:25;;;;;;;2.63;1.33;;;;;;;8.38;66.31;95714.53;5109693;28;20052;-71
2021/05/25 07:43:50;;;;;;;3.83;1.25;;;;;;;8.57;67.37;95701.06;5111454;28;20035;-70
2021/05/25 07:46:22;;;;;;;5.03;1.58;;;;;;;8.84;64.08;95716.75;5105092;28;20060;-71
2021/05/25 07:48:48;;;;;;;4.30;1.42;;;;;;;8.85;64.75;95713.06;5096976;28;20048;-70
2021/05/25 07:51:14;;;;;;;3.47;1.10;;;;;;;8.96;64.79;95717.31;5098484;28;20044;-70
2021/05/25 07:53:39;;;;;;;4.43;1.38;;;;;;;8.78;62.13;95729.03;5100546;28;20067;-70
2021/05/25 07:56:05;;;;;;;2.35;1.25;;;;;;;8.84;60.14;95722.78;5111710;27;20100;-70
2021/05/25 07:58:31;;;;;;;3.13;1.13;;;;;;;8.89;61.18;95734.34;5100577;28;20052;-70
2021/05/25 08:00:57;;;;;;;4.63;1.30;;;;;;;8.93;62.09;95738.81;5091064;28;20040;-71
2021/05/25 08:03:23;;;;;;;1.63;0.90;;;;;;;9.00;60.91;95730.75;5090723;28;20047;-70
2021/05/25 08:05:49;;;;;;;4.28;1.15;;;;;;;9.22;59.76;95721.94;5098772;28;20043;-71
2021/05/25 08:08:15;;;;;;;5.72;1.50;;;;;;;9.26;65.78;95723.00;5092198;28;20129;-71
2021/05/25 08:10:41;;;;;;;4.38;1.27;;;;;;;9.45;60.65;95726.78;5109449;28;20048;-71
2021/05/25 08:13:07;;;;;;;3.13;1.10;;;;;;;9.50;61.71;95721.53;5111629;28;20058;-70
2021/05/25 08:15:35;;;;;;;5.05;1.23;;;;;;;9.67;58.30;95739.75;5111080;27;20032;-70
2021/05/25 08:20:29;;;;;;;3.97;1.13;;;;;;;9.51;58.39;95710.00;5094604;28;20043;-70
2021/05/25 08:22:57;;;;;;;3.50;1.35;;;;;;;9.79;59.21;95707.97;5108827;28;20036;-70
2021/05/25 08:25:26;;;;;;;3.13;1.55;;;;;;;9.97;62.14;95716.41;5095348;28;20052;-71
2021/05/25 08:27:56;;;;;;;2.42;1.02;;;;;;;10.15;59.50;95718.56;5094818;28;20047;-71
2021/05/25 08:30:25;;;;;;;4.53;1.25;;;;;;;10.09;58.65;95719.59;5090872;28;20119;-71
2021/05/25 08:32:52;;;;;;;2.78;1.20;;;;;;;10.20;58.25;95715.94;5103327;28;20572;-71
2021/05/25 08:35:19;;;;;;;2.65;1.35;;;;;;;10.30;58.61;95724.88;5101722;28;20115;-70
2021/05/25 08:37:51;;;;;;;4.10;1.25;;;;;;;10.26;58.46;95723.81;5108646;28;20501;-71
2021/05/25 08:40:18;;;;;;;5.53;1.40;;;;;;;10.04;56.22;95719.59;5091310;28;20044;-71
2021/05/25 08:42:46;;;;;;;3.05;1.25;;;;;;;10.10;57.23;95726.44;5103618;28;20446;-71
2021/05/25 08:45:13;;;;;;;2.22;1.02;;;;;;;10.14;55.93;95722.25;5110489;28;20092;-71
2021/05/25 08:47:40;;;;;;;3.10;1.20;;;;;;;10.25;55.21;95717.00;5109324;28;20040;-70
2021/05/25 08:50:08;;;;;;;3.45;1.30;;;;;;;10.45;57.83;95722.31;5110742;28;20046;-71
2021/05/25 08:52:34;;;;;;;7.70;1.55;;;;;;;10.34;57.63;95716.25;5109279;28;20101;-71
2021/05/25 08:55:00;;;;;;;5.55;1.48;;;;;;;10.58;57.73;95720.97;5108565;28;20051;-71
2021/05/25 08:57:26;;;;;;;3.90;1.10;;;;;;;10.91;56.22;95727.53;5110966;28;20500;-71
2021/05/25 08:59:51;;;;;;;3.05;1.20;;;;;;;10.98;51.93;95726.50;5110662;28;20519;-71
2021/05/25 09:02:17;;;;;;;4.88;1.30;;;;;;;11.21;51.88;95728.53;5110671;28;20098;-71
2021/05/25 09:05:06;;;;;;;2.63;1.00;;;;;;;11.36;48.39;95751.41;5101299;28;20052;-71
2021/05/25 09:07:52;;;;;;;3.22;1.02;;;;;;;11.34;49.12;95737.72;5110249;28;20493;-71
2021/05/25 09:10:21;;;;;;;3.60;1.15;;;;;;;11.23;48.82;95729.06;5109078;28;20040;-71
2021/05/25 09:12:52;;;;;;;3.55;1.08;;;;;;;11.53;49.16;95724.72;5109578;28;20036;-71
2021/05/25 09:15:31;;;;;;;2.65;1.27;;;;;;;11.53;47.99;95708.91;5110212;28;20056;-72
2021/05/25 09:18:08;;;;;;;4.68;1.30;;;;;;;11.26;51.11;95731.16;5108976;28;20546;-71
2021/05/25 09:20:45;;;;;;;2.47;1.08;;;;;;;11.21;50.42;95740.94;5110412;28;20047;-71
2021/05/25 09:23:16;;;;;;;2.67;1.10;;;;;;;11.07;48.80;95727.50;5109831;28;20047;-70
2021/05/25 09:25:52;;;;;;;3.88;1.40;;;;;;;11.15;46.55;95734.88;5105295;28;20111;-71
2021/05/25 09:28:18;;;;;;;1.52;0.90;;;;;;;11.18;46.44;95729.06;5102714;28;20046;-70
2021/05/25 09:30:47;;;;;;;2.03;0.98;;;;;;;11.31;46.39;95732.22;5110585;28;20423;-70
2021/05/25 09:33:14;;;;;;;1.60;0.80;;;;;;;11.12;46.35;95724.88;5110241;28;20459;-70
2021/05/25 09:35:42;;;;;;;1.75;0.95;;;;;;;11.06;47.39;95739.09;5109190;28;20051;-69
2021/05/25 09:38:21;;;;;;;3.63;1.10;;;;;;;11.22;46.61;95724.84;5102290;28;20154;-71
2021/05/25 09:40:51;;;;;;;3.53;1.10;;;;;;;11.54;44.89;95720.28;5090099;28;20059;-70
2021/05/25 09:43:28;;;;;;;4.45;1.30;;;;;;;11.65;45.01;95727.09;5108032;28;20110;-70
2021/05/25 09:45:59;;;;;;;2.63;1.10;;;;;;;11.88;45.59;95740.66;5097852;28;20052;-70
2021/05/25 09:48:28;;;;;;;3.33;0.80;;;;;;;11.61;43.21;95721.56;5107389;28;20032;-70
2021/05/25 09:50:54;;;;;;;1.38;0.93;;;;;;;11.83;42.52;95723.03;5110098;28;20382;-71
2021/05/25 09:53:23;;;;;;;3.85;1.02;;;;;;;11.78;42.06;95725.72;5110568;28;20056;-71
2021/05/25 09:56:20;;;;;;;3.10;1.17;;;;;;;12.34;42.13;95726.44;5107639;28;20089;-70
2021/05/25 09:58:46;;;;;;;4.70;1.30;;;;;;;12.20;42.59;95747.41;5109608;28;20047;-70
2021/05/25 10:01:12;;;;;;;3.55;1.13;;;;;;;11.94;43.03;95745.69;5110169;28;20089;-71
2021/05/25 10:04:12;;;;;;;5.32;1.25;;;;;;;12.29;44.62;95730.69;5106589;28;20493;-71
2021/05/25 10:06:46;;;;;;;3.83;1.10;;;;;;;12.29;45.66;95738.63;5095727;28;20064;-71
2021/05/25 10:09:12;;;;;;;;;;;;;;;12.01;45.60;95739.31;5097370;28;20067;-71
2021/05/25 10:11:43;;;;;;;2.58;1.25;;;;;;;12.06;47.68;95736.66;5110179;28;19977;-71
2021/05/25 10:14:10;;;;;;;2.30;1.17;;;;;;;12.32;45.26;95750.47;5109693;28;20054;-70
2021/05/25 10:16:39;;;;;;;3.88;0.90;;;;;;;11.99;44.03;95728.25;5103704;28;20528;-70
2021/05/25 10:21:48;;;;;;;2.60;1.00;;;;;;;13.04;46.10;95728.75;5110281;28;20050;-70
2021/05/25 10:24:15;;;;;;;2.10;1.02;;;;;;;13.13;44.15;95734.22;5110215;28;20516;-70
2021/05/25 10:26:40;;;;;;;3.42;1.40;;;;;;;13.38;41.13;95745.66;5107186;28;20054;-70
2021/05/25 10:29:06;;;;;;;1.98;0.90;;;;;;;13.75;41.06;95736.22;5111071;28;20052;-70
2021/05/25 10:31:40;;;;;;;2.08;1.20;;;;;;;14.21;40.19;95740.94;5113327;28;20043;-69
2021/05/25 10:34:12;;;;;;;1.60;1.02;;;;;;;15.06;37.91;95741.72;5113397;28;20054;-70
2021/05/25 10:36:58;;;;;;;4.10;1.20;;;;;;;14.52;38.50;95737.81;5103651;28;20147;-70
2021/05/25 10:39:27;;;;;;;1.52;1.17;;;;;;;14.56;38.75;95729.00;5106331;28;20450;-68
2021/05/25 10:42:18;;;;;;;3.03;1.30;;;;;;;14.86;39.26;95736.78;5113291;28;20169;-67
2021/05/25 10:44:48;;;;;;;2.25;1.20;;;;;;;15.74;38.53;95736.72;5098676;28;20044;-68
2021/05/25 10:47:26;;;;;;;2.53;1.40;;;;;;;15.72;37.85;95751.41;5103459;28;20508;-67
2021/05/25 10:50:11;;;;;;;4.40;1.30;;;;;;;16.30;35.76;95744.63;5103082;28;20452;-69
2021/05/25 10:52:37;;;;;;;5.80;1.73;;;;;;;15.14;38.32;95747.44;5104693;28;20128;-67
2021/05/25 10:55:03;;;;;;;3.55;1.50;;;;;;;16.26;35.88;95759.59;5103730;28;20052;-67
2021/05/25 10:57:35;;;;;;;6.88;1.60;;;;;;;16.95;36.25;95730.13;5092901;28;20037;-67
2021/05/25 11:00:12;;;;;;;3.38;1.13;;;;;;;16.06;36.11;95735.06;5098623;28;20043;-68
2021/05/25 11:02:44;;;;;;;3.75;1.40;;;;;;;15.92;38.06;95750.22;5102459;28;20544;-68
2021/05/25 11:05:32;;;;;;;2.78;1.60;;;;;;;15.63;36.45;95737.25;5098573;28;20440;-68
2021/05/25 11:08:10;;;;;;;3.65;1.50;;;;;;;16.54;35.63;95743.56;5092953;28;20062;-67
2021/05/25 11:10:57;;;;;;;3.33;1.60;;;;;;;17.04;33.02;95730.16;5103975;28;20058;-67
2021/05/25 11:13:28;;;;;;;4.10;1.48;;;;;;;15.97;36.25;95720.91;5106741;28;20048;-73
2021/05/25 11:16:10;;;;;;;3.70;1.50;;;;;;;16.24;34.19;95706.78;5094356;28;20039;-68
2021/05/25 11:18:53;;;;;;;4.22;1.20;;;;;;;13.77;38.85;95728.81;5093391;28;20052;-68
2021/05/25 11:24:46;;;;;;;4.90;1.13;;;;;;;15.47;36.32;95728.81;5100405;28;20526;-67
2021/05/25 11:27:26;;;;;;;5.07;1.50;;;;;;;17.02;32.92;95731.53;5105330;28;20036;-68
2021/05/25 11:30:23;;;;;;;5.68;1.65;;;;;;;17.92;30.90;95714.50;5108385;28;20409;-68
2021/05/25 11:32:52;;;;;;;2.78;1.50;;;;;;;17.90;32.47;95712.16;5089288;28;20130;-69
2021/05/25 11:35:20;;;;;;;2.90;1.55;;;;;;;18.63;29.20;95729.41;5098219;28;20048;-69
2021/05/25 11:37:53;;;;;;;2.53;1.48;;;;;;;17.89;29.75;95721.22;5096012;28;20505;-69
2021/05/25 11:40:39;;;;;;;5.10;1.48;;;;;;;15.61;33.04;95734.09;5109388;28;20058;-69
2021/05/25 11:43:06;;;;;;;2.03;1.45;;;;;;;15.88;33.77;95722.72;5107421;28;20048;-70
2021/05/25 11:45:32;;;;;;;2.13;1.20;;;;;;;17.40;29.54;95726.56;5106540;28;20044;-68
2021/05/25 11:48:02;;;;;;;7.85;1.50;;;;;;;17.63;29.67;95734.47;5106993;28;20048;-71
2021/05/25 11:50:38;;;;;;;3.88;1.30;;;;;;;18.48;28.21;95723.47;5109457;28;20044;-69
2021/05/25 11:53:04;;;;;;;6.45;1.50;;;;;;;18.50;28.13;95745.25;5092095;28;20044;-69
2021/05/25 11:55:31;;;;;;;4.20;1.45;;;;;;;18.80;27.62;95716.03;5092376;28;20655;-70